Observations for FALCONARA IT-AFB, Italy (LIPY)

LIPY 200550Z 19003KT CAVOK 10/07 Q1027  
LIPY 200450Z 19004KT CAVOK 07/05 Q1027  
LIPY 200400Z 18004KT CAVOK 07/05 Q1026
LIPY 200350Z AUTO 19004KT 9999 NCD 06/05 Q1026  
LIPY 200250Z AUTO 18004KT 9000 NCD 07/06 Q1026  
LIPY 200150Z AUTO 19004KT 8000 NCD 07/06 Q1027  
LIPY 200050Z AUTO 18003KT 9000 NCD 07/06 Q1027  
LIPY 192350Z AUTO 17003KT 9000 NCD 08/06 Q1028  
LIPY 192250Z AUTO 18004KT 8000 NCD 08/07 Q1028  
LIPY 192150Z 18002KT CAVOK 09/07 Q1028  
LIPY 192050Z 17003KT CAVOK 10/07 Q1028  
LIPY 191950Z 15004KT CAVOK 11/08 Q1028  
LIPY 191850Z VRB01KT CAVOK 13/10 Q1028  
LIPY 191750Z 31003KT 270V340 CAVOK 14/10 Q1027  
LIPY 191650Z 36004KT CAVOK 16/11 Q1027  
LIPY 191550Z 35006KT 320V020 CAVOK 17/11 Q1027  
LIPY 191450Z 03007KT CAVOK 17/09 Q1028  
LIPY 191350Z 03008KT CAVOK 18/10 Q1028  
LIPY 191250Z 03007KT 350V050 CAVOK 17/11 Q1029  
LIPY 191150Z 36008KT CAVOK 17/13 Q1029  
LIPY 191050Z 34008KT 9999 FEW030 17/13 Q1029
LIPY 190950Z 33009KT 300V360 CAVOK 16/12 Q1029  
LIPY 190850Z 34009KT CAVOK 16/11 Q1029  
LIPY 190750Z 28004KT 230V330 CAVOK 15/11 Q1029  
LIPY 190650Z 22004KT 170V250 CAVOK 13/09 Q1028  
LIPY 190550Z 20003KT 160V220 9999 FEW070 11/07 Q1028